Aérodrome :
LOGIN :

S'inscrire | Disclaimer

   EN    FR    IT 

 










Légende :    VFR   VFR Marginal   IFR   IFR Intensif   IFR Très Intensif
Visi : 
Plafond : 
>= 8 km
>= 3000ft
5 à 8 km
1000 à 3000 ft
1500m à 5 km
500 à 1000 ft
800 à 1500m
200 à 500 ft
< 800m
< 200 ft
Symboles :   Orages  Brouillard  Fortes neiges  Fortes précipitations  Vent > 20 kt
SIGMETs :   Divers  Orages  Givrage  Turbulence  Onde Orograph.  Cendres Volcan.







- Altitude de l'aérodrome : 1260 ft
- Code IATA : LDE
- Voir les cartes d'approche


LFBT - Tarbes / Ossun

DERNIER METAR :
  • 252000Z AUTO 20007KT 9999 OVC074 09/08 Q1009 TEMPO 2000 RA OVC005 BECMG 28010KT

METARs EXPIRÉS :
  • 251930Z AUTO 24009KT 200V260 9999 -RA BKN060 OVC072 09/08 Q1009 TEMPO 2000 RA OVC005
  • 251900Z AUTO 25010KT 8000 -RA FEW009/// OVC058/// ///TCU 09/08 Q1009 TEMPO 2000 RA OVC005
  • 251830Z AUTO 25006KT 210V290 5000 -RA BR OVC008/// ///TCU 09/08 Q1009 TEMPO 2000 RA OVC005
  • 251800Z AUTO 24005KT 190V270 7000 -RA BKN008/// BKN016/// BKN028/// ///TCU 09/08 Q1009 TEMPO 2000 RA OVC005
  • 251730Z AUTO 27010KT 230V300 5000 RA BR SCT009/// SCT019/// BKN033/// ///CB 09/08 Q1009 TEMPO 2000 RA OVC005

TAF TAF LFBT
Valide du 25 à 18h jusqu'au 26 à 18h UTC


251700Z 2518/2618 28010KT 9999 BKN070
TEMPO 2518/2610 4000 -RA OVC010
TEMPO 2518/2522 2000 RA OVC005
TEMPO 2610/2615 4000 SHRA BKN005 BKN010 BKN025
Pas de NOTAMs connus pour ce terrain.



MET'MAP, la Météo Aéronautique d'un coup d'oeil ! - Copyright ORBIFLY Décembre 2007 - Disclaimer

ORBIFLY MET'MAP TEAM :

Programmation & Développement : Alexandra Zaïnal
Conception & Développement : Baudouin d'Aumeries
Co-Programmation & Développement : Marc-Olivier Méhu
Soutien technique & logistique : Manuel Goepfert

Contact : metmap@orbifly.com




SOURCES & CREDITS :

   NOAA